Time;durP1;ratioP1;P1;durP2;ratioP2;P2;SDS_P1;SDS_P2;PMS_P1;PMS_P2;Temp;Humidity;BMP_temperature;BMP_pressure;BME280_temperature;BME280_humidity;BME280_pressure;Samples;Min_cycle;Max_cycle;Signal;HPM_P1;HPM_P2
2023/07/25 00:02:17;;;;;;;;;;;16.70;99.90;;;;;;5004107;28;19989;-69
2023/07/25 00:04:44;;;;;;;;;;;16.70;99.90;;;;;;4988360;28;19985;-70
2023/07/25 00:07:11;;;;;;;;;;;16.60;99.90;;;;;;4988525;28;19922;-68
2023/07/25 00:09:37;;;;;;;;;;;16.60;99.90;;;;;;4987716;28;19922;-70
2023/07/25 00:12:05;;;;;;;;;;;16.50;99.90;;;;;;4986807;28;20210;-68
2023/07/25 00:14:33;;;;;;;;;;;16.50;99.90;;;;;;4987309;28;19929;-69
2023/07/25 00:17:00;;;;;;;;;;;16.50;99.90;;;;;;4987876;28;19969;-69
2023/07/25 00:19:28;;;;;;;;;;;16.50;99.90;;;;;;4987653;28;20168;-69
2023/07/25 00:21:54;;;;;;;;;;;16.50;99.90;;;;;;4987882;28;19960;-69
2023/07/25 00:24:21;;;;;;;;;;;16.50;99.90;;;;;;4987802;28;19922;-68
2023/07/25 00:26:48;;;;;;;;;;;16.50;99.90;;;;;;4988050;28;19997;-69
2023/07/25 00:29:14;;;;;;;;;;;16.40;99.90;;;;;;4987449;28;19990;-69
2023/07/25 00:31:41;;;;;;;;;;;16.40;99.90;;;;;;4988018;28;19944;-69
2023/07/25 00:34:07;;;;;;;;;;;16.40;99.90;;;;;;4988112;28;20098;-69
2023/07/25 00:36:35;;;;;;;;;;;16.40;99.90;;;;;;4997857;28;19929;-68
2023/07/25 00:39:02;;;;;;;;;;;16.40;99.90;;;;;;5006704;28;19928;-69
2023/07/25 00:41:29;;;;;;;;;;;16.40;99.90;;;;;;5007117;28;19922;-71
2023/07/25 00:43:55;;;;;;;;;;;16.30;99.90;;;;;;5007225;28;20321;-69
2023/07/25 00:46:22;;;;;;;;;;;16.40;99.90;;;;;;5007204;28;19949;-69
2023/07/25 00:48:49;;;;;;;;;;;16.30;99.90;;;;;;5006749;28;19949;-69
2023/07/25 00:51:16;;;;;;;;;;;16.30;99.90;;;;;;5006718;28;20214;-69
2023/07/25 00:53:44;;;;;;;;;;;16.30;99.90;;;;;;5007008;28;19928;-69
2023/07/25 00:56:11;;;;;;;;;;;16.30;99.90;;;;;;5007187;28;19988;-69
2023/07/25 00:58:38;;;;;;;;;;;16.30;99.90;;;;;;5006347;28;19994;-69
2023/07/25 01:01:05;;;;;;;;;;;16.30;99.90;;;;;;5007141;28;19949;-69
2023/07/25 01:03:33;;;;;;;;;;;16.30;99.90;;;;;;5006881;28;19949;-69
2023/07/25 01:06:00;;;;;;;;;;;16.30;99.90;;;;;;5006395;28;20118;-68
2023/07/25 01:08:27;;;;;;;;;;;16.30;99.90;;;;;;5006015;28;20256;-69
2023/07/25 01:10:55;;;;;;;;;;;16.30;99.90;;;;;;5006581;28;19997;-69
2023/07/25 01:13:22;;;;;;;;;;;16.20;99.90;;;;;;5005839;28;20013;-69
2023/07/25 01:15:49;;;;;;;;;;;16.20;99.90;;;;;;5009747;28;20272;-69
2023/07/25 01:18:16;;;;;;;;;;;16.20;99.90;;;;;;5017286;28;19993;-69
2023/07/25 01:20:43;;;;;;;;;;;16.10;99.90;;;;;;5025904;28;20117;-69
2023/07/25 01:23:10;;;;;;;;;;;16.20;99.90;;;;;;5023988;28;19928;-69
2023/07/25 01:25:38;;;;;;;;;;;16.10;99.90;;;;;;5017876;28;19922;-69
2023/07/25 01:28:05;;;;;;;;;;;16.10;99.90;;;;;;5003481;28;19921;-69
2023/07/25 01:30:32;;;;;;;;;;;16.20;99.90;;;;;;5006101;28;19953;-69
2023/07/25 01:32:59;;;;;;;;;;;16.20;99.90;;;;;;5006158;28;20004;-69
2023/07/25 01:35:25;;;;;;;;;;;16.10;99.90;;;;;;5006201;28;19953;-69
2023/07/25 01:37:52;;;;;;;;;;;16.20;99.90;;;;;;5006116;28;20202;-68
2023/07/25 01:40:18;;;;;;;;;;;16.20;99.90;;;;;;5005858;28;19922;-69
2023/07/25 01:42:46;;;;;;;;;;;16.10;99.90;;;;;;5006080;28;20184;-69
2023/07/25 01:45:13;;;;;;;;;;;16.10;99.90;;;;;;5006263;28;19922;-69
2023/07/25 01:47:40;;;;;;;;;;;16.10;99.90;;;;;;5006034;28;19933;-68
2023/07/25 01:50:06;;;;;;;;;;;16.10;99.90;;;;;;5005779;28;19929;-69
2023/07/25 01:52:33;;;;;;;;;;;16.10;99.90;;;;;;5006095;28;19953;-69
2023/07/25 01:55:00;;;;;;;;;;;16.00;99.90;;;;;;5005852;28;20264;-69
2023/07/25 01:57:26;;;;;;;;;;;16.10;99.90;;;;;;5005995;28;19984;-69
2023/07/25 01:59:54;;;;;;;;;;;16.10;99.90;;;;;;5005017;28;20021;-69
2023/07/25 02:02:21;;;;;;;;;;;16.00;99.90;;;;;;5005899;28;20167;-69
2023/07/25 02:04:47;;;;;;;;;;;16.00;99.90;;;;;;5005754;28;19922;-69
2023/07/25 02:07:14;;;;;;;;;;;16.00;99.90;;;;;;5005447;28;19921;-69
2023/07/25 02:09:41;;;;;;;;;;;16.00;99.90;;;;;;4987930;28;20177;-69
2023/07/25 02:12:08;;;;;;;;;;;15.90;99.90;;;;;;4986036;28;20256;-69
2023/07/25 02:14:34;;;;;;;;;;;15.90;99.90;;;;;;4986534;28;19985;-69
2023/07/25 02:17:02;;;;;;;;;;;15.90;99.90;;;;;;4985549;28;19965;-69
2023/07/25 02:19:29;;;;;;;;;;;15.80;99.90;;;;;;4985252;28;19981;-69
2023/07/25 02:21:56;;;;;;;;;;;15.80;99.90;;;;;;4986131;28;19946;-68
2023/07/25 02:24:22;;;;;;;;;;;15.80;99.90;;;;;;4985173;28;19985;-69
2023/07/25 02:26:49;;;;;;;;;;;15.80;99.90;;;;;;4985524;28;19922;-69
2023/07/25 02:29:15;;;;;;;;;;;15.80;99.90;;;;;;4996738;28;19984;-69
2023/07/25 02:31:42;;;;;;;;;;;15.80;99.90;;;;;;5005567;28;19953;-69
2023/07/25 02:34:10;;;;;;;;;;;15.80;99.90;;;;;;5005213;28;19993;-69
2023/07/25 02:36:37;;;;;;;;;;;15.80;99.90;;;;;;5005200;28;19929;-69
2023/07/25 02:39:03;;;;;;;;;;;15.80;99.90;;;;;;5004403;28;19949;-69
2023/07/25 02:41:30;;;;;;;;;;;15.80;99.90;;;;;;5004796;28;19928;-69
2023/07/25 02:43:57;;;;;;;;;;;15.80;99.90;;;;;;5005236;28;19928;-68
2023/07/25 02:46:23;;;;;;;;;;;15.80;99.90;;;;;;5005030;28;19992;-69
2023/07/25 02:48:50;;;;;;;;;;;15.80;99.90;;;;;;5004437;28;19922;-69
2023/07/25 02:51:18;;;;;;;;;;;15.80;99.90;;;;;;5005098;28;19957;-69
2023/07/25 02:53:44;;;;;;;;;;;15.80;99.90;;;;;;5004771;28;19961;-69
2023/07/25 02:56:11;;;;;;;;;;;15.70;99.90;;;;;;5004750;28;19929;-68
2023/07/25 02:58:38;;;;;;;;;;;15.70;99.90;;;;;;5004185;28;19963;-69
2023/07/25 03:01:05;;;;;;;;;;;15.70;99.90;;;;;;5004634;28;19985;-69
2023/07/25 03:03:31;;;;;;;;;;;15.70;99.90;;;;;;5004220;28;20196;-69
2023/07/25 03:05:58;;;;;;;;;;;15.70;99.90;;;;;;5004634;28;20170;-68
2023/07/25 03:08:26;;;;;;;;;;;15.70;99.90;;;;;;5003914;28;20210;-69
2023/07/25 03:10:53;;;;;;;;;;;15.60;99.90;;;;;;5004779;28;19929;-69
2023/07/25 03:13:19;;;;;;;;;;;15.60;99.90;;;;;;5004275;28;19921;-69
2023/07/25 03:15:46;;;;;;;;;;;15.60;99.90;;;;;;5004463;28;19923;-69
2023/07/25 03:18:12;;;;;;;;;;;15.60;99.90;;;;;;5003640;28;19921;-69
2023/07/25 03:20:39;;;;;;;;;;;15.60;99.90;;;;;;5004237;28;20187;-69
2023/07/25 03:23:06;;;;;;;;;;;15.60;99.90;;;;;;5004239;28;19952;-69
2023/07/25 03:25:34;;;;;;;;;;;15.50;99.90;;;;;;5004028;28;19960;-69
2023/07/25 03:28:00;;;;;;;;;;;15.50;99.90;;;;;;5002966;28;19921;-69
2023/07/25 03:30:27;;;;;;;;;;;15.50;99.90;;;;;;4987203;28;19954;-69
2023/07/25 03:32:53;;;;;;;;;;;15.50;99.90;;;;;;5004074;28;20209;-69
2023/07/25 03:35:20;;;;;;;;;;;15.40;99.90;;;;;;5003763;28;19964;-69
2023/07/25 03:37:47;;;;;;;;;;;15.40;99.90;;;;;;5003787;28;20000;-69
2023/07/25 03:40:13;;;;;;;;;;;15.40;99.90;;;;;;5003597;28;19981;-69
2023/07/25 03:42:41;;;;;;;;;;;15.40;99.90;;;;;;5004321;28;19957;-69
2023/07/25 03:45:08;;;;;;;;;;;15.30;99.90;;;;;;5004106;28;19985;-69
2023/07/25 03:47:35;;;;;;;;;;;15.40;99.90;;;;;;5003826;28;19929;-69
2023/07/25 03:50:02;;;;;;;;;;;15.40;99.90;;;;;;5003705;28;20198;-69
2023/07/25 03:52:28;;;;;;;;;;;15.30;99.90;;;;;;5004154;28;19968;-69
2023/07/25 03:54:55;;;;;;;;;;;15.30;99.90;;;;;;5003568;28;19988;-69
2023/07/25 03:57:22;;;;;;;;;;;15.30;99.90;;;;;;5004057;28;19997;-69
2023/07/25 03:59:50;;;;;;;;;;;15.30;99.90;;;;;;5003388;28;20269;-69
2023/07/25 04:02:16;;;;;;;;;;;15.30;99.90;;;;;;5003821;28;19921;-69
2023/07/25 04:47:29;;;;;;;;;;;15.30;99.90;;;;;;5002200;28;19968;-84
2023/07/25 04:49:56;;;;;;;;;;;15.30;99.90;;;;;;5002026;28;20172;-84
2023/07/25 04:52:22;;;;;;;;;;;15.30;99.90;;;;;;5006726;28;20243;-84
2023/07/25 04:54:50;;;;;;;;;;;15.30;99.90;;;;;;5006689;28;20188;-84
2023/07/25 04:57:18;;;;;;;;;;;15.40;99.90;;;;;;4997714;28;19961;-84
2023/07/25 04:59:45;;;;;;;;;;;15.30;99.90;;;;;;5013047;28;19996;-84
2023/07/25 05:02:11;;;;;;;;;;;15.30;99.90;;;;;;5022912;28;19950;-84
2023/07/25 05:04:39;;;;;;;;;;;15.30;99.90;;;;;;5020064;28;19963;-84
2023/07/25 05:10:02;;;;;;;;;;;15.20;99.90;;;;;;5008651;28;19917;-84
2023/07/25 05:12:29;;;;;;;;;;;15.10;99.90;;;;;;5008795;28;20213;-84
2023/07/25 05:14:56;;;;;;;;;;;15.10;99.90;;;;;;5008039;28;20170;-84
2023/07/25 05:17:22;;;;;;;;;;;15.00;99.90;;;;;;4986920;28;19956;-84
2023/07/25 05:19:50;;;;;;;;;;;15.00;99.90;;;;;;4988217;28;19941;-84
2023/07/25 05:22:17;;;;;;;;;;;15.00;99.90;;;;;;5006174;28;19949;-85
2023/07/25 05:24:44;;;;;;;;;;;15.00;99.90;;;;;;5027276;28;19945;-84
2023/07/25 05:27:10;;;;;;;;;;;15.00;99.90;;;;;;5009101;28;20168;-86
2023/07/25 05:29:37;;;;;;;;;;;15.10;99.90;;;;;;5006539;28;19985;-86
2023/07/25 05:32:04;;;;;;;;;;;15.20;99.90;;;;;;5007152;28;19960;-86
2023/07/25 05:34:30;;;;;;;;;;;15.20;99.90;;;;;;5007380;28;19922;-86
2023/07/25 05:37:33;;;;;;;;;;;15.30;99.90;;;;;;5006218;28;20101;-87
2023/07/25 05:40:02;;;;;;;;;;;15.30;99.90;;;;;;5006115;28;19948;-87
2023/07/25 05:42:34;;;;;;;;;;;15.40;99.90;;;;;;5006887;28;19929;-87
2023/07/25 05:48:06;;;;;;;;;;;15.40;99.90;;;;;;5006244;28;19944;-87
2023/07/25 05:50:36;;;;;;;;;;;15.50;99.90;;;;;;5004292;28;20175;-88
2023/07/25 05:56:27;;;;;;;;;;;15.60;99.90;;;;;;5006890;28;19957;-87
2023/07/25 05:58:56;;;;;;;;;;;15.70;99.90;;;;;;5005005;28;19948;-87
2023/07/25 06:01:22;;;;;;;;;;;15.70;99.90;;;;;;5006093;28;19946;-87
2023/07/25 06:03:49;;;;;;;;;;;15.70;99.90;;;;;;5010212;28;19947;-87
2023/07/25 06:06:16;;;;;;;;;;;15.80;99.90;;;;;;5006738;28;20196;-87
2023/07/25 06:14:50;;;;;;;;;;;15.90;99.90;;;;;;5017931;22;20276;-73
2023/07/25 06:17:17;;;;;;;;;;;16.00;99.90;;;;;;5023300;28;19960;-73
2023/07/25 06:19:44;;;;;;;;;;;16.00;99.90;;;;;;4985421;28;19929;-73
2023/07/25 06:22:11;;;;;;;;;;;16.00;99.90;;;;;;4986238;28;19984;-73
2023/07/25 06:24:38;;;;;;;;;;;16.00;99.90;;;;;;4983610;28;19929;-73
2023/07/25 06:27:05;;;;;;;;;;;16.10;99.90;;;;;;4986289;28;19969;-73
2023/07/25 06:29:34;;;;;;;;;;;16.10;99.90;;;;;;4985394;28;19926;-73
2023/07/25 06:32:02;;;;;;;;;;;16.10;99.90;;;;;;4985563;28;20236;-73
2023/07/25 06:34:29;;;;;;;;;;;16.20;99.90;;;;;;4985729;28;19922;-73
2023/07/25 06:36:55;;;;;;;;;;;16.20;99.90;;;;;;4984402;28;19993;-73
2023/07/25 06:39:23;;;;;;;;;;;16.20;99.90;;;;;;4984839;28;19922;-73
2023/07/25 06:41:50;;;;;;;;;;;16.20;99.90;;;;;;4985927;28;19922;-73
2023/07/25 06:44:19;;;;;;;;;;;16.20;99.90;;;;;;4985427;28;19928;-73
2023/07/25 06:46:45;;;;;;;;;;;16.30;99.90;;;;;;4985382;28;20229;-73
2023/07/25 06:49:13;;;;;;;;;;;16.20;99.90;;;;;;4984971;28;19954;-74
2023/07/25 06:51:40;;;;;;;;;;;16.20;99.90;;;;;;4985412;28;19953;-73
2023/07/25 06:54:06;;;;;;;;;;;16.10;99.90;;;;;;4985223;28;19929;-74
2023/07/25 06:56:33;;;;;;;;;;;16.10;99.90;;;;;;4985458;28;19922;-73
2023/07/25 06:59:00;;;;;;;;;;;16.00;99.90;;;;;;4984955;28;19937;-73
2023/07/25 07:01:27;;;;;;;;;;;16.00;99.90;;;;;;4982821;28;19951;-73
2023/07/25 07:03:54;;;;;;;;;;;16.00;99.90;;;;;;4985185;28;19926;-73
2023/07/25 07:06:22;;;;;;;;;;;16.00;99.90;;;;;;4985327;28;19922;-73
2023/07/25 07:08:49;;;;;;;;;;;16.00;99.90;;;;;;4984860;28;20272;-73
2023/07/25 07:11:15;;;;;;;;;;;16.00;99.90;;;;;;4982640;28;19981;-73
2023/07/25 07:13:42;;;;;;;;;;;16.00;99.90;;;;;;4984810;28;19981;-72
2023/07/25 07:16:10;;;;;;;;;;;16.10;99.90;;;;;;5005065;28;19949;-73
2023/07/25 07:18:36;;;;;;;;;;;16.10;99.90;;;;;;5020901;28;19984;-72
2023/07/25 07:21:03;;;;;;;;;;;16.20;99.90;;;;;;5023982;28;19981;-73
2023/07/25 07:23:31;;;;;;;;;;;16.20;99.90;;;;;;5005906;28;20167;-73
2023/07/25 07:25:58;;;;;;;;;;;16.20;99.90;;;;;;5004380;28;20257;-73
2023/07/25 07:28:24;;;;;;;;;;;16.20;99.90;;;;;;5004065;28;19922;-73
2023/07/25 07:30:51;;;;;;;;;;;16.30;99.90;;;;;;5004838;28;19980;-73
2023/07/25 07:33:18;;;;;;;;;;;16.30;99.90;;;;;;5004403;28;19948;-73
2023/07/25 07:35:48;;;;;;;;;;;16.30;99.90;;;;;;5001951;28;20000;-73
2023/07/25 07:38:14;;;;;;;;;;;16.20;99.90;;;;;;5004334;28;19993;-75
2023/07/25 07:40:42;;;;;;;;;;;16.20;99.90;;;;;;5004398;28;20177;-75
2023/07/25 07:43:09;;;;;;;;;;;16.10;99.90;;;;;;5004412;28;20001;-75
2023/07/25 07:45:37;;;;;;;;;;;16.10;99.90;;;;;;5001333;28;19981;-75
2023/07/25 07:48:04;;;;;;;;;;;16.10;99.90;;;;;;5000934;28;20497;-75
2023/07/25 07:50:33;;;;;;;;;;;16.00;99.90;;;;;;5004431;28;19921;-75
2023/07/25 07:52:59;;;;;;;;;;;16.00;99.90;;;;;;5004057;28;20239;-73
2023/07/25 07:55:26;;;;;;;;;;;15.90;99.90;;;;;;5003806;28;19921;-74
2023/07/25 07:57:55;;;;;;;;;;;15.90;99.90;;;;;;5004059;28;19926;-74
2023/07/25 08:00:23;;;;;;;;;;;15.90;99.90;;;;;;5003889;28;20217;-75
2023/07/25 08:02:50;;;;;;;;;;;15.90;99.90;;;;;;5004382;28;19925;-74
2023/07/25 08:05:17;;;;;;;;;;;15.90;99.90;;;;;;5003707;28;19929;-74
2023/07/25 08:07:43;;;;;;;;;;;15.90;99.90;;;;;;5004021;28;19953;-74
2023/07/25 08:10:10;;;;;;;;;;;15.90;99.90;;;;;;5003901;28;19964;-74
2023/07/25 08:12:37;;;;;;;;;;;15.90;99.90;;;;;;5003938;28;19949;-74
2023/07/25 08:15:06;;;;;;;;;;;16.00;99.90;;;;;;5003782;28;19932;-74
2023/07/25 08:17:36;;;;;;;;;;;16.00;99.90;;;;;;5010545;28;19935;-75
2023/07/25 08:20:03;;;;;;;;;;;16.00;99.90;;;;;;5017566;28;19922;-74
2023/07/25 08:22:30;;;;;;;;;;;16.10;99.90;;;;;;5015554;28;19944;-74
2023/07/25 08:24:57;;;;;;;;;;;16.10;99.90;;;;;;5007847;28;19944;-74
2023/07/25 08:27:24;;;;;;;;;;;16.10;99.90;;;;;;5008057;28;19985;-74
2023/07/25 08:29:51;;;;;;;;;;;16.20;99.90;;;;;;5007029;28;19922;-74
2023/07/25 08:32:19;;;;;;;;;;;16.20;99.90;;;;;;5007887;28;19936;-74
2023/07/25 08:34:45;;;;;;;;;;;16.30;99.90;;;;;;5007430;28;19921;-74
2023/07/25 08:37:12;;;;;;;;;;;16.30;99.90;;;;;;5007866;28;19922;-74
2023/07/25 08:39:39;;;;;;;;;;;16.40;99.90;;;;;;5006887;28;20284;-74
2023/07/25 08:42:07;;;;;;;;;;;16.50;99.90;;;;;;5007702;28;19989;-74
2023/07/25 08:44:34;;;;;;;;;;;16.60;99.90;;;;;;5007531;28;19921;-74
2023/07/25 08:47:03;;;;;;;;;;;16.60;99.90;;;;;;5007437;28;19922;-74
2023/07/25 08:49:31;;;;;;;;;;;16.70;99.90;;;;;;5006921;28;19928;-74
2023/07/25 08:51:59;;;;;;;;;;;16.80;99.90;;;;;;5007416;28;20124;-74
2023/07/25 08:54:30;;;;;;;;;;;16.90;99.90;;;;;;5007267;28;19984;-74
2023/07/25 08:56:56;;;;;;;;;;;17.00;99.90;;;;;;5007049;28;20003;-74
2023/07/25 08:59:24;;;;;;;;;;;17.10;99.90;;;;;;5004424;28;20259;-74
2023/07/25 09:01:51;;;;;;;;;;;17.20;99.90;;;;;;5007351;28;19985;-74
2023/07/25 09:04:19;;;;;;;;;;;17.20;99.90;;;;;;5006824;28;19926;-74
2023/07/25 09:06:47;;;;;;;;;;;17.30;99.90;;;;;;5006946;28;19928;-72
2023/07/25 09:09:13;;;;;;;;;;;17.30;99.90;;;;;;5006553;28;19922;-74
2023/07/25 09:11:40;;;;;;;;;;;17.40;99.90;;;;;;5007189;28;20156;-74
2023/07/25 09:14:07;;;;;;;;;;;17.40;99.90;;;;;;5006561;28;20259;-74
2023/07/25 09:16:34;;;;;;;;;;;17.40;99.90;;;;;;5008207;28;19945;-74
2023/07/25 09:19:05;;;;;;;;;;;17.40;99.90;;;;;;5016195;28;19928;-74
2023/07/25 09:21:32;;;;;;;;;;;17.40;99.90;;;;;;5024343;28;20276;-73
2023/07/25 09:24:00;;;;;;;;;;;17.40;99.90;;;;;;5006530;28;19921;-74
2023/07/25 09:26:30;;;;;;;;;;;17.40;99.90;;;;;;5007229;28;20137;-72
2023/07/25 09:28:57;;;;;;;;;;;17.50;99.90;;;;;;5006229;28;20152;-73
2023/07/25 09:34:54;;;;;;;;;;;17.70;99.90;;;;;;4956346;28;19997;-73
2023/07/25 09:40:37;;;;;;;;;;;17.80;99.90;;;;;;4905475;28;19988;-74
2023/07/25 09:43:03;;;;;;;;;;;17.90;99.90;;;;;;5006170;28;20209;-73
2023/07/25 09:45:36;;;;;;;;;;;17.80;99.90;;;;;;5006244;28;19984;-75
2023/07/25 10:09:26;;;;;;;;;;;18.40;99.90;;;;;;5022453;28;19920;-71
2023/07/25 10:11:53;;;;;;;;;;;18.60;99.90;;;;;;5025564;28;20204;-71
2023/07/25 10:20:45;;;;;;;;;;;18.70;99.90;;;;;;4978310;28;19922;-71
2023/07/25 10:32:43;;;;;;;;;;;19.30;99.90;;;;;;4980754;28;20124;-72
2023/07/25 10:35:09;;;;;;;;;;;19.50;99.90;;;;;;4985665;28;19922;-71
2023/07/25 10:43:55;;;;;;;;;;;19.50;99.90;;;;;;4985643;28;19989;-71
2023/07/25 10:46:23;;;;;;;;;;;19.60;99.90;;;;;;4984783;28;19965;-71
2023/07/25 10:48:51;;;;;;;;;;;19.70;99.90;;;;;;4985359;28;19993;-71
2023/07/25 10:51:18;;;;;;;;;;;19.80;99.90;;;;;;4985251;28;20265;-71
2023/07/25 10:54:00;;;;;;;;;;;19.80;99.90;;;;;;4985837;28;20102;-71
2023/07/25 10:56:26;;;;;;;;;;;19.80;99.90;;;;;;4984549;28;19922;-71
2023/07/25 10:59:06;;;;;;;;;;;19.90;99.90;;;;;;4982429;28;20232;-71
2023/07/25 11:01:46;;;;;;;;;;;20.00;99.90;;;;;;4985635;28;20090;-71
2023/07/25 11:04:28;;;;;;;;;;;20.00;99.90;;;;;;4985580;28;19929;-71
2023/07/25 11:06:55;;;;;;;;;;;20.10;99.90;;;;;;4985216;28;19928;-71
2023/07/25 11:09:22;;;;;;;;;;;20.10;99.90;;;;;;4984812;28;19922;-71
2023/07/25 11:11:51;;;;;;;;;;;20.00;99.90;;;;;;4985158;28;20252;-72
2023/07/25 11:14:18;;;;;;;;;;;20.00;99.90;;;;;;4985250;28;19922;-71
2023/07/25 11:16:46;;;;;;;;;;;20.00;99.90;;;;;;5001117;28;19922;-71
2023/07/25 11:19:14;;;;;;;;;;;20.00;99.90;;;;;;4991824;28;19949;-71
2023/07/25 11:21:42;;;;;;;;;;;20.10;99.90;;;;;;4996806;28;19922;-71
2023/07/25 11:24:09;;;;;;;;;;;20.10;99.90;;;;;;5004726;28;19944;-71
2023/07/25 11:26:37;;;;;;;;;;;20.10;99.90;;;;;;5004259;28;19997;-71
2023/07/25 11:29:04;;;;;;;;;;;20.10;99.90;;;;;;5003796;28;19965;-72
2023/07/25 11:31:35;;;;;;;;;;;20.10;99.90;;;;;;5002014;28;19984;-71
2023/07/25 11:34:12;;;;;;;;;;;20.10;99.90;;;;;;5004522;28;19928;-70
2023/07/25 11:36:39;;;;;;;;;;;20.20;99.90;;;;;;5003479;28;19928;-71
2023/07/25 11:39:08;;;;;;;;;;;20.10;99.90;;;;;;5003923;28;19921;-71
2023/07/25 11:41:35;;;;;;;;;;;20.10;99.90;;;;;;5004572;28;19929;-71
2023/07/25 11:44:04;;;;;;;;;;;20.20;99.90;;;;;;5004226;28;19921;-71
2023/07/25 11:46:31;;;;;;;;;;;20.10;99.90;;;;;;5004174;28;19922;-71
2023/07/25 11:48:58;;;;;;;;;;;20.20;99.90;;;;;;5003859;28;19921;-72
2023/07/25 11:51:25;;;;;;;;;;;20.20;99.90;;;;;;5004147;28;20184;-71
2023/07/25 11:53:51;;;;;;;;;;;20.10;99.90;;;;;;5004411;28;19996;-71
2023/07/25 11:56:19;;;;;;;;;;;20.10;99.90;;;;;;5005198;28;19928;-71
2023/07/25 11:58:50;;;;;;;;;;;20.10;99.90;;;;;;5007830;28;19929;-72
2023/07/25 12:01:17;;;;;;;;;;;20.00;99.90;;;;;;5008130;28;19926;-71
2023/07/25 12:03:48;;;;;;;;;;;19.80;99.90;;;;;;5008216;28;19957;-71
2023/07/25 12:06:15;;;;;;;;;;;19.70;99.90;;;;;;5007956;28;19922;-71
2023/07/25 12:08:42;;;;;;;;;;;19.50;99.90;;;;;;5007676;28;20152;-72
2023/07/25 12:11:09;;;;;;;;;;;19.50;99.90;;;;;;5008365;28;19981;-71
2023/07/25 12:13:44;;;;;;;;;;;19.40;99.90;;;;;;5008311;28;19921;-71
2023/07/25 12:16:23;;;;;;;;;;;19.40;99.90;;;;;;5008068;28;20201;-72
2023/07/25 12:18:51;;;;;;;;;;;19.70;99.90;;;;;;4995908;28;20325;-71
2023/07/25 12:21:22;;;;;;;;;;;20.00;99.90;;;;;;4988629;28;19922;-71
2023/07/25 12:23:52;;;;;;;;;;;20.10;99.90;;;;;;5007715;28;19922;-71
2023/07/25 12:26:43;;;;;;;;;;;20.20;99.90;;;;;;5005102;28;20279;-71
2023/07/25 12:29:14;;;;;;;;;;;20.00;99.90;;;;;;5003595;28;19938;-71
2023/07/25 12:31:40;;;;;;;;;;;19.90;99.90;;;;;;4998644;28;20172;-71
2023/07/25 12:34:07;;;;;;;;;;;20.10;99.90;;;;;;4998586;28;19922;-71
2023/07/25 12:36:34;;;;;;;;;;;19.90;99.90;;;;;;4987804;28;20276;-71
2023/07/25 12:39:00;;;;;;;;;;;19.70;99.90;;;;;;4987332;28;20264;-71
2023/07/25 12:41:27;;;;;;;;;;;19.40;99.90;;;;;;4988254;28;19990;-71
2023/07/25 12:43:58;;;;;;;;;;;19.20;99.90;;;;;;4985745;28;19922;-71
2023/07/25 12:46:26;;;;;;;;;;;18.80;99.90;;;;;;4992542;28;20213;-71
2023/07/25 12:48:52;;;;;;;;;;;18.50;99.90;;;;;;5006792;28;20221;-71
2023/07/25 12:51:19;;;;;;;;;;;18.20;99.90;;;;;;5007602;28;19985;-71
2023/07/25 12:53:46;;;;;;;;;;;18.00;99.90;;;;;;5006998;28;20051;-71
2023/07/25 12:56:12;;;;;;;;;;;17.80;99.90;;;;;;5006895;28;19922;-71
2023/07/25 12:58:39;;;;;;;;;;;17.50;99.90;;;;;;5006673;28;19997;-70
2023/07/25 13:01:05;;;;;;;;;;;17.40;99.90;;;;;;5007084;28;19922;-71
2023/07/25 13:03:36;;;;;;;;;;;17.30;99.90;;;;;;5006667;28;19922;-71
2023/07/25 13:06:03;;;;;;;;;;;17.20;99.90;;;;;;5006484;28;19944;-71
2023/07/25 13:08:29;;;;;;;;;;;17.20;99.90;;;;;;5005151;28;20248;-71
2023/07/25 13:10:59;;;;;;;;;;;17.10;99.90;;;;;;5006171;28;19953;-72
2023/07/25 13:13:26;;;;;;;;;;;17.10;99.90;;;;;;5007245;28;19989;-71
2023/07/25 13:15:52;;;;;;;;;;;17.30;99.90;;;;;;4989907;28;20005;-71
2023/07/25 13:18:38;;;;;;;;;;;17.30;99.90;;;;;;4992535;28;19953;-71
2023/07/25 13:21:04;;;;;;;;;;;17.40;99.90;;;;;;4987334;28;19993;-71
2023/07/25 13:23:40;;;;;;;;;;;17.40;99.90;;;;;;5002614;28;20222;-71
2023/07/25 13:26:06;;;;;;;;;;;17.40;99.90;;;;;;5006726;28;19957;-71
2023/07/25 13:28:33;;;;;;;;;;;17.50;99.90;;;;;;5006181;28;19928;-71
2023/07/25 13:31:00;;;;;;;;;;;17.50;99.90;;;;;;5006532;28;19922;-71
2023/07/25 13:33:26;;;;;;;;;;;17.70;99.90;;;;;;5002288;28;19928;-71
2023/07/25 13:35:54;;;;;;;;;;;17.80;99.90;;;;;;4986748;28;20012;-71
2023/07/25 13:38:40;;;;;;;;;;;17.80;99.90;;;;;;5006013;28;19922;-71
2023/07/25 13:41:07;;;;;;;;;;;17.90;99.90;;;;;;5025903;28;19921;-72
2023/07/25 13:43:33;;;;;;;;;;;18.10;99.90;;;;;;5026079;28;19952;-71
2023/07/25 13:46:00;;;;;;;;;;;18.20;99.90;;;;;;5025912;28;19921;-71
2023/07/25 13:48:27;;;;;;;;;;;18.40;99.90;;;;;;5025594;28;19952;-71
2023/07/25 13:50:54;;;;;;;;;;;18.90;99.90;;;;;;5026048;28;19996;-71
2023/07/25 13:53:21;;;;;;;;;;;19.20;99.90;;;;;;5026063;28;20112;-72
2023/07/25 13:55:48;;;;;;;;;;;19.30;99.90;;;;;;5025589;28;19993;-71
2023/07/25 13:58:14;;;;;;;;;;;19.10;99.90;;;;;;5025325;28;19928;-71
2023/07/25 14:00:41;;;;;;;;;;;18.90;99.90;;;;;;5025577;28;19996;-71
2023/07/25 14:03:08;;;;;;;;;;;18.90;99.90;;;;;;5025720;28;19928;-71
2023/07/25 14:05:34;;;;;;;;;;;18.70;99.90;;;;;;5024998;28;20205;-71
2023/07/25 14:08:06;;;;;;;;;;;18.60;99.90;;;;;;5024963;28;19963;-71
2023/07/25 14:10:33;;;;;;;;;;;18.50;99.90;;;;;;5025237;28;19922;-72
2023/07/25 14:13:00;;;;;;;;;;;18.30;99.90;;;;;;5025622;28;19984;-71
2023/07/25 14:15:27;;;;;;;;;;;18.30;99.90;;;;;;5011501;28;19949;-71
2023/07/25 14:17:53;;;;;;;;;;;18.30;99.90;;;;;;5001194;28;19930;-71
2023/07/25 14:20:20;;;;;;;;;;;18.60;99.90;;;;;;5001026;28;20171;-71
2023/07/25 14:22:46;;;;;;;;;;;18.70;99.90;;;;;;4993931;28;19950;-71
2023/07/25 14:25:14;;;;;;;;;;;18.70;99.90;;;;;;4986229;28;19985;-71
2023/07/25 14:27:41;;;;;;;;;;;18.80;99.90;;;;;;4985830;28;20233;-70
2023/07/25 14:30:08;;;;;;;;;;;19.10;99.90;;;;;;4985668;28;19993;-70
2023/07/25 14:32:35;;;;;;;;;;;19.50;99.90;;;;;;4986118;28;19929;-70
2023/07/25 14:35:01;;;;;;;;;;;19.90;99.90;;;;;;4986062;28;19989;-70
2023/07/25 14:37:28;;;;;;;;;;;19.90;99.90;;;;;;4993418;28;19922;-70
2023/07/25 14:39:54;;;;;;;;;;;20.10;99.90;;;;;;5024169;28;19928;-71
2023/07/25 14:42:22;;;;;;;;;;;20.20;99.90;;;;;;5024768;28;20235;-70
2023/07/25 14:44:52;;;;;;;;;;;20.20;99.90;;;;;;5022194;28;19921;-70
2023/07/25 14:47:19;;;;;;;;;;;20.20;99.90;;;;;;5025011;28;19921;-70
2023/07/25 14:49:46;;;;;;;;;;;20.00;99.90;;;;;;5024010;28;19922;-70
2023/07/25 14:52:13;;;;;;;;;;;19.80;99.90;;;;;;5024763;28;19921;-70
2023/07/25 14:54:46;;;;;;;;;;;19.60;99.90;;;;;;5021962;28;19921;-70
2023/07/25 14:57:13;;;;;;;;;;;19.40;99.90;;;;;;5019881;28;19992;-70
2023/07/25 14:59:41;;;;;;;;;;;19.40;99.90;;;;;;4997213;28;19921;-70
2023/07/25 15:02:08;;;;;;;;;;;19.60;99.90;;;;;;4985557;28;19965;-70
2023/07/25 15:04:34;;;;;;;;;;;19.50;99.90;;;;;;4985441;28;19922;-71
2023/07/25 15:07:01;;;;;;;;;;;19.40;99.90;;;;;;5004371;28;19993;-71
2023/07/25 15:09:28;;;;;;;;;;;19.30;99.90;;;;;;5004173;28;20163;-70
2023/07/25 15:11:54;;;;;;;;;;;19.60;99.90;;;;;;5004737;28;19957;-70
2023/07/25 15:14:21;;;;;;;;;;;19.70;99.90;;;;;;5004770;28;19997;-69
2023/07/25 15:16:49;;;;;;;;;;;19.70;99.90;;;;;;4993156;28;19922;-71
2023/07/25 15:19:15;;;;;;;;;;;19.80;99.90;;;;;;4992654;28;19929;-70
2023/07/25 15:21:42;;;;;;;;;;;19.90;99.90;;;;;;4988135;28;19984;-70
2023/07/25 15:24:16;;;;;;;;;;;20.10;99.90;;;;;;5004478;28;20178;-69
2023/07/25 15:26:42;;;;;;;;;;;20.20;99.90;;;;;;5003721;28;19922;-70
2023/07/25 15:29:09;;;;;;;;;;;20.10;99.90;;;;;;4999203;28;19989;-70
2023/07/25 15:31:35;;;;;;;;;;;19.90;99.90;;;;;;4992451;28;19936;-70
2023/07/25 15:34:03;;;;;;;;;;;19.80;99.90;;;;;;4997088;28;20225;-71
2023/07/25 15:36:30;;;;;;;;;;;19.70;99.90;;;;;;4986827;28;19994;-71
2023/07/25 15:38:57;;;;;;;;;;;19.50;99.90;;;;;;5019419;28;19988;-70
2023/07/25 15:41:23;;;;;;;;;;;19.30;99.90;;;;;;5014025;28;19922;-69
2023/07/25 15:43:50;;;;;;;;;;;19.00;99.90;;;;;;5004137;28;19993;-70
2023/07/25 15:46:17;;;;;;;;;;;18.80;99.90;;;;;;5004050;28;19943;-69
2023/07/25 15:48:44;;;;;;;;;;;18.60;99.90;;;;;;5003447;28;19922;-71
2023/07/25 15:51:12;;;;;;;;;;;18.50;99.90;;;;;;5003872;28;19928;-71
2023/07/25 15:53:39;;;;;;;;;;;18.40;99.90;;;;;;5003871;28;20411;-71
2023/07/25 15:56:05;;;;;;;;;;;18.20;99.90;;;;;;5001311;28;20149;-71
2023/07/25 15:58:32;;;;;;;;;;;18.20;99.90;;;;;;4998773;28;19954;-71
2023/07/25 16:01:00;;;;;;;;;;;18.10;99.90;;;;;;4984852;28;19922;-71
2023/07/25 16:03:27;;;;;;;;;;;18.10;99.90;;;;;;4984956;28;20213;-71
2023/07/25 16:05:53;;;;;;;;;;;18.10;99.90;;;;;;4984535;28;19981;-71
2023/07/25 16:08:21;;;;;;;;;;;18.10;99.90;;;;;;4995241;28;19979;-71